sensor_id;sensor_type;location;lat;lon;timestamp;temperature;humidity
51486;DHT22;37565;51.352;6.412;2023-06-04T00:00:29;21.90;74.60
51486;DHT22;37565;51.352;6.412;2023-06-04T00:02:57;21.90;73.50
51486;DHT22;37565;51.352;6.412;2023-06-04T00:05:26;21.90;74.10
51486;DHT22;37565;51.352;6.412;2023-06-04T00:07:54;21.90;72.30
51486;DHT22;37565;51.352;6.412;2023-06-04T00:10:22;21.90;71.70
51486;DHT22;37565;51.352;6.412;2023-06-04T00:12:50;21.90;72.70
51486;DHT22;37565;51.352;6.412;2023-06-04T00:15:18;21.90;72.90
51486;DHT22;37565;51.352;6.412;2023-06-04T00:17:46;21.90;73.20
51486;DHT22;37565;51.352;6.412;2023-06-04T00:20:14;21.90;73.00
51486;DHT22;37565;51.352;6.412;2023-06-04T00:22:43;21.90;72.20
51486;DHT22;37565;51.352;6.412;2023-06-04T00:25:11;21.90;72.10
51486;DHT22;37565;51.352;6.412;2023-06-04T00:27:39;21.90;72.40
51486;DHT22;37565;51.352;6.412;2023-06-04T00:30:08;21.90;69.50
51486;DHT22;37565;51.352;6.412;2023-06-04T00:32:36;21.90;71.20
51486;DHT22;37565;51.352;6.412;2023-06-04T00:35:05;21.90;72.00
51486;DHT22;37565;51.352;6.412;2023-06-04T00:37:33;21.90;69.40
51486;DHT22;37565;51.352;6.412;2023-06-04T00:40:02;21.90;70.20
51486;DHT22;37565;51.352;6.412;2023-06-04T00:42:32;21.90;70.00
51486;DHT22;37565;51.352;6.412;2023-06-04T00:45:00;21.90;70.20
51486;DHT22;37565;51.352;6.412;2023-06-04T04:49:16;21.30;74.20
51486;DHT22;37565;51.352;6.412;2023-06-04T04:51:44;21.20;72.60
51486;DHT22;37565;51.352;6.412;2023-06-04T04:54:12;21.30;74.70
51486;DHT22;37565;51.352;6.412;2023-06-04T04:56:40;21.30;74.80
51486;DHT22;37565;51.352;6.412;2023-06-04T04:59:08;21.30;75.10
51486;DHT22;37565;51.352;6.412;2023-06-04T05:01:36;21.40;75.70
51486;DHT22;37565;51.352;6.412;2023-06-04T05:04:04;21.40;76.10
51486;DHT22;37565;51.352;6.412;2023-06-04T05:06:37;21.40;76.10
51486;DHT22;37565;51.352;6.412;2023-06-04T05:09:05;21.40;75.90
51486;DHT22;37565;51.352;6.412;2023-06-04T05:11:34;21.40;75.90
51486;DHT22;37565;51.352;6.412;2023-06-04T05:14:02;21.40;75.60
51486;DHT22;37565;51.352;6.412;2023-06-04T05:16:30;21.40;75.40
51486;DHT22;37565;51.352;6.412;2023-06-04T05:18:58;21.50;75.50
51486;DHT22;37565;51.352;6.412;2023-06-04T05:21:27;21.40;75.40
51486;DHT22;37565;51.352;6.412;2023-06-04T05:23:56;21.40;75.70
51486;DHT22;37565;51.352;6.412;2023-06-04T05:26:24;21.40;75.40
51486;DHT22;37565;51.352;6.412;2023-06-04T05:28:54;21.40;75.40
51486;DHT22;37565;51.352;6.412;2023-06-04T05:31:25;21.40;75.70
51486;DHT22;37565;51.352;6.412;2023-06-04T05:33:54;21.40;75.80
51486;DHT22;37565;51.352;6.412;2023-06-04T05:36:22;21.40;75.60
51486;DHT22;37565;51.352;6.412;2023-06-04T05:38:50;21.50;75.10
51486;DHT22;37565;51.352;6.412;2023-06-04T05:41:25;21.50;74.90
51486;DHT22;37565;51.352;6.412;2023-06-04T05:43:54;21.60;75.00
51486;DHT22;37565;51.352;6.412;2023-06-04T05:46:22;21.60;74.60
51486;DHT22;37565;51.352;6.412;2023-06-04T05:48:50;21.70;75.10
51486;DHT22;37565;51.352;6.412;2023-06-04T05:51:18;21.80;74.80
51486;DHT22;37565;51.352;6.412;2023-06-04T05:53:46;21.80;74.60
51486;DHT22;37565;51.352;6.412;2023-06-04T05:56:14;21.80;74.10
51486;DHT22;37565;51.352;6.412;2023-06-04T05:58:50;21.90;74.20
51486;DHT22;37565;51.352;6.412;2023-06-04T06:01:18;21.90;74.20
51486;DHT22;37565;51.352;6.412;2023-06-04T06:03:46;22.00;74.00
51486;DHT22;37565;51.352;6.412;2023-06-04T06:06:14;22.00;73.50
51486;DHT22;37565;51.352;6.412;2023-06-04T06:08:42;22.00;73.50
51486;DHT22;37565;51.352;6.412;2023-06-04T06:11:10;22.10;73.80
51486;DHT22;37565;51.352;6.412;2023-06-04T06:13:39;22.10;73.20
51486;DHT22;37565;51.352;6.412;2023-06-04T06:16:08;22.10;73.30
51486;DHT22;37565;51.352;6.412;2023-06-04T06:18:36;22.20;73.30
51486;DHT22;37565;51.352;6.412;2023-06-04T06:21:04;22.20;72.80
51486;DHT22;37565;51.352;6.412;2023-06-04T06:23:32;22.20;72.90
51486;DHT22;37565;51.352;6.412;2023-06-04T06:26:01;22.20;72.60
51486;DHT22;37565;51.352;6.412;2023-06-04T06:28:30;22.20;72.60
51486;DHT22;37565;51.352;6.412;2023-06-04T06:30:58;22.30;72.80
51486;DHT22;37565;51.352;6.412;2023-06-04T06:33:27;22.30;72.50
51486;DHT22;37565;51.352;6.412;2023-06-04T06:35:55;22.30;72.20
51486;DHT22;37565;51.352;6.412;2023-06-04T06:38:23;22.40;72.30
51486;DHT22;37565;51.352;6.412;2023-06-04T06:40:52;22.40;72.40
51486;DHT22;37565;51.352;6.412;2023-06-04T06:43:20;22.40;72.70
51486;DHT22;37565;51.352;6.412;2023-06-04T06:45:47;22.40;72.80
51486;DHT22;37565;51.352;6.412;2023-06-04T06:48:15;22.40;72.30
51486;DHT22;37565;51.352;6.412;2023-06-04T06:50:45;22.40;72.40
51486;DHT22;37565;51.352;6.412;2023-06-04T06:53:13;22.40;72.30
51486;DHT22;37565;51.352;6.412;2023-06-04T06:55:41;22.50;72.40
51486;DHT22;37565;51.352;6.412;2023-06-04T06:58:08;22.50;72.20
51486;DHT22;37565;51.352;6.412;2023-06-04T07:00:36;22.50;72.20
51486;DHT22;37565;51.352;6.412;2023-06-04T07:03:04;22.50;72.20
51486;DHT22;37565;51.352;6.412;2023-06-04T07:05:32;22.50;72.20
51486;DHT22;37565;51.352;6.412;2023-06-04T07:08:02;22.50;72.00
51486;DHT22;37565;51.352;6.412;2023-06-04T07:10:30;22.50;72.20
51486;DHT22;37565;51.352;6.412;2023-06-04T07:12:58;22.60;72.50
51486;DHT22;37565;51.352;6.412;2023-06-04T07:15:26;22.50;72.50
51486;DHT22;37565;51.352;6.412;2023-06-04T07:17:56;22.60;72.20
51486;DHT22;37565;51.352;6.412;2023-06-04T07:20:24;22.60;72.40
51486;DHT22;37565;51.352;6.412;2023-06-04T07:22:52;22.60;72.60
51486;DHT22;37565;51.352;6.412;2023-06-04T07:25:21;22.60;72.80
51486;DHT22;37565;51.352;6.412;2023-06-04T07:27:50;22.60;72.90
51486;DHT22;37565;51.352;6.412;2023-06-04T07:30:18;22.60;73.00
51486;DHT22;37565;51.352;6.412;2023-06-04T07:32:47;22.60;72.80
51486;DHT22;37565;51.352;6.412;2023-06-04T07:35:16;22.60;73.10
51486;DHT22;37565;51.352;6.412;2023-06-04T07:37:44;22.60;72.80
51486;DHT22;37565;51.352;6.412;2023-06-04T07:40:14;22.60;73.00
51486;DHT22;37565;51.352;6.412;2023-06-04T07:42:45;22.50;73.00
51486;DHT22;37565;51.352;6.412;2023-06-04T07:45:13;22.60;73.00
51486;DHT22;37565;51.352;6.412;2023-06-04T07:47:42;22.50;73.30
51486;DHT22;37565;51.352;6.412;2023-06-04T07:50:10;22.50;73.20
51486;DHT22;37565;51.352;6.412;2023-06-04T07:52:38;22.50;73.40
51486;DHT22;37565;51.352;6.412;2023-06-04T07:55:07;22.50;73.70
51486;DHT22;37565;51.352;6.412;2023-06-04T07:57:36;22.50;73.90
51486;DHT22;37565;51.352;6.412;2023-06-04T08:00:07;22.50;73.50
51486;DHT22;37565;51.352;6.412;2023-06-04T08:02:35;22.50;73.80
51486;DHT22;37565;51.352;6.412;2023-06-04T08:05:04;22.50;73.50
51486;DHT22;37565;51.352;6.412;2023-06-04T08:07:32;22.50;73.90
51486;DHT22;37565;51.352;6.412;2023-06-04T08:10:00;22.50;73.40
51486;DHT22;37565;51.352;6.412;2023-06-04T08:12:28;22.40;73.80
51486;DHT22;37565;51.352;6.412;2023-06-04T08:14:56;22.50;74.00
51486;DHT22;37565;51.352;6.412;2023-06-04T08:17:26;22.40;74.00
51486;DHT22;37565;51.352;6.412;2023-06-04T08:19:53;22.40;74.20
51486;DHT22;37565;51.352;6.412;2023-06-04T08:22:21;22.40;74.30
51486;DHT22;37565;51.352;6.412;2023-06-04T08:24:49;22.40;74.40
51486;DHT22;37565;51.352;6.412;2023-06-04T08:27:17;22.40;74.30
51486;DHT22;37565;51.352;6.412;2023-06-04T08:29:45;22.40;74.40
51486;DHT22;37565;51.352;6.412;2023-06-04T08:32:13;22.40;74.60
51486;DHT22;37565;51.352;6.412;2023-06-04T08:34:42;22.40;74.60
51486;DHT22;37565;51.352;6.412;2023-06-04T08:37:10;22.40;74.70
51486;DHT22;37565;51.352;6.412;2023-06-04T08:39:38;22.40;74.70
51486;DHT22;37565;51.352;6.412;2023-06-04T08:42:09;22.40;74.00
51486;DHT22;37565;51.352;6.412;2023-06-04T08:44:46;22.40;74.40
51486;DHT22;37565;51.352;6.412;2023-06-04T08:47:19;22.30;74.10
51486;DHT22;37565;51.352;6.412;2023-06-04T08:49:49;22.40;74.30
51486;DHT22;37565;51.352;6.412;2023-06-04T08:52:18;22.30;73.60
51486;DHT22;37565;51.352;6.412;2023-06-04T08:54:49;22.40;73.80
51486;DHT22;37565;51.352;6.412;2023-06-04T08:57:18;22.30;73.60
51486;DHT22;37565;51.352;6.412;2023-06-04T08:59:47;22.30;73.60
51486;DHT22;37565;51.352;6.412;2023-06-04T09:02:15;22.40;73.70
51486;DHT22;37565;51.352;6.412;2023-06-04T09:04:43;22.30;73.40
51486;DHT22;37565;51.352;6.412;2023-06-04T09:07:13;22.40;73.40
51486;DHT22;37565;51.352;6.412;2023-06-04T09:09:44;22.30;73.50
51486;DHT22;37565;51.352;6.412;2023-06-04T09:12:27;22.30;72.30
51486;DHT22;37565;51.352;6.412;2023-06-04T09:14:58;22.30;72.90
51486;DHT22;37565;51.352;6.412;2023-06-04T09:17:27;22.40;73.00
51486;DHT22;37565;51.352;6.412;2023-06-04T09:19:56;22.40;73.30
51486;DHT22;37565;51.352;6.412;2023-06-04T09:22:33;22.40;72.10
51486;DHT22;37565;51.352;6.412;2023-06-04T09:25:04;22.40;72.80
51486;DHT22;37565;51.352;6.412;2023-06-04T09:27:38;22.40;71.60
51486;DHT22;37565;51.352;6.412;2023-06-04T09:30:07;22.40;71.00
51486;DHT22;37565;51.352;6.412;2023-06-04T09:32:36;22.40;70.10
51486;DHT22;37565;51.352;6.412;2023-06-04T09:35:11;22.40;68.60
51486;DHT22;37565;51.352;6.412;2023-06-04T09:37:43;22.40;68.90
51486;DHT22;37565;51.352;6.412;2023-06-04T09:40:19;22.40;68.20
51486;DHT22;37565;51.352;6.412;2023-06-04T09:42:48;22.40;67.50
51486;DHT22;37565;51.352;6.412;2023-06-04T09:45:27;22.40;67.40
51486;DHT22;37565;51.352;6.412;2023-06-04T09:47:58;22.40;65.80
51486;DHT22;37565;51.352;6.412;2023-06-04T09:50:34;22.40;64.20
51486;DHT22;37565;51.352;6.412;2023-06-04T09:53:14;22.40;64.80
51486;DHT22;37565;51.352;6.412;2023-06-04T09:55:43;22.40;63.80
51486;DHT22;37565;51.352;6.412;2023-06-04T09:58:11;22.40;62.90
51486;DHT22;37565;51.352;6.412;2023-06-04T10:00:40;22.40;61.60
51486;DHT22;37565;51.352;6.412;2023-06-04T10:03:12;22.40;58.90
51486;DHT22;37565;51.352;6.412;2023-06-04T10:05:43;22.40;57.40
51486;DHT22;37565;51.352;6.412;2023-06-04T10:08:14;22.40;57.40
51486;DHT22;37565;51.352;6.412;2023-06-04T10:10:45;22.40;56.60
51486;DHT22;37565;51.352;6.412;2023-06-04T10:13:17;22.40;57.40
51486;DHT22;37565;51.352;6.412;2023-06-04T10:15:46;22.40;56.30
51486;DHT22;37565;51.352;6.412;2023-06-04T10:18:14;22.40;55.20
51486;DHT22;37565;51.352;6.412;2023-06-04T10:20:43;22.40;55.20
51486;DHT22;37565;51.352;6.412;2023-06-04T10:23:11;22.40;54.40
51486;DHT22;37565;51.352;6.412;2023-06-04T10:25:41;22.40;55.00
51486;DHT22;37565;51.352;6.412;2023-06-04T10:28:10;22.40;55.40
51486;DHT22;37565;51.352;6.412;2023-06-04T10:30:38;22.40;55.20
51486;DHT22;37565;51.352;6.412;2023-06-04T10:33:06;22.40;55.80
51486;DHT22;37565;51.352;6.412;2023-06-04T10:35:35;22.40;55.10
51486;DHT22;37565;51.352;6.412;2023-06-04T10:38:08;22.40;54.10
51486;DHT22;37565;51.352;6.412;2023-06-04T10:40:37;22.40;54.80
51486;DHT22;37565;51.352;6.412;2023-06-04T10:43:07;22.50;55.70
51486;DHT22;37565;51.352;6.412;2023-06-04T10:45:35;22.50;56.30
51486;DHT22;37565;51.352;6.412;2023-06-04T10:48:05;22.60;56.50
51486;DHT22;37565;51.352;6.412;2023-06-04T10:50:34;22.60;54.30
51486;DHT22;37565;51.352;6.412;2023-06-04T10:53:03;22.60;55.90
51486;DHT22;37565;51.352;6.412;2023-06-04T10:55:32;22.60;54.80
51486;DHT22;37565;51.352;6.412;2023-06-04T10:58:12;22.60;53.80
51486;DHT22;37565;51.352;6.412;2023-06-04T11:00:41;22.60;55.00
51486;DHT22;37565;51.352;6.412;2023-06-04T11:03:10;22.60;53.50
51486;DHT22;37565;51.352;6.412;2023-06-04T11:05:40;22.60;53.50
51486;DHT22;37565;51.352;6.412;2023-06-04T11:08:09;22.60;54.90
51486;DHT22;37565;51.352;6.412;2023-06-04T11:10:43;22.70;55.40
51486;DHT22;37565;51.352;6.412;2023-06-04T11:13:13;22.60;55.80
51486;DHT22;37565;51.352;6.412;2023-06-04T11:15:42;22.60;56.10
51486;DHT22;37565;51.352;6.412;2023-06-04T11:18:14;22.70;56.90
51486;DHT22;37565;51.352;6.412;2023-06-04T11:20:43;22.70;57.40
51486;DHT22;37565;51.352;6.412;2023-06-04T11:23:12;22.70;57.80
51486;DHT22;37565;51.352;6.412;2023-06-04T11:25:40;22.70;58.60
51486;DHT22;37565;51.352;6.412;2023-06-04T11:28:15;22.70;58.50
51486;DHT22;37565;51.352;6.412;2023-06-04T11:30:44;22.70;58.50
51486;DHT22;37565;51.352;6.412;2023-06-04T11:33:23;22.70;58.70
51486;DHT22;37565;51.352;6.412;2023-06-04T11:35:51;22.70;58.90
51486;DHT22;37565;51.352;6.412;2023-06-04T11:38:19;22.70;59.10
51486;DHT22;37565;51.352;6.412;2023-06-04T11:40:55;22.70;58.70
51486;DHT22;37565;51.352;6.412;2023-06-04T11:43:24;22.70;59.10
51486;DHT22;37565;51.352;6.412;2023-06-04T11:45:53;22.80;59.70
51486;DHT22;37565;51.352;6.412;2023-06-04T11:48:21;22.80;59.80
51486;DHT22;37565;51.352;6.412;2023-06-04T11:50:49;22.80;59.90
51486;DHT22;37565;51.352;6.412;2023-06-04T11:53:17;22.80;59.70
51486;DHT22;37565;51.352;6.412;2023-06-04T11:55:45;22.80;59.40
51486;DHT22;37565;51.352;6.412;2023-06-04T11:58:13;22.80;59.30
51486;DHT22;37565;51.352;6.412;2023-06-04T12:00:43;22.80;60.10
51486;DHT22;37565;51.352;6.412;2023-06-04T12:03:11;22.80;60.70
51486;DHT22;37565;51.352;6.412;2023-06-04T12:05:39;22.80;60.50
51486;DHT22;37565;51.352;6.412;2023-06-04T12:08:09;22.80;59.40
51486;DHT22;37565;51.352;6.412;2023-06-04T12:10:38;22.80;59.60
51486;DHT22;37565;51.352;6.412;2023-06-04T12:13:06;22.80;60.30
51486;DHT22;37565;51.352;6.412;2023-06-04T12:15:34;22.80;60.10
51486;DHT22;37565;51.352;6.412;2023-06-04T12:18:04;22.80;60.20
51486;DHT22;37565;51.352;6.412;2023-06-04T12:20:34;22.80;60.00
51486;DHT22;37565;51.352;6.412;2023-06-04T12:23:02;22.80;60.30
51486;DHT22;37565;51.352;6.412;2023-06-04T12:25:31;22.80;59.00
51486;DHT22;37565;51.352;6.412;2023-06-04T12:28:00;22.90;61.10
51486;DHT22;37565;51.352;6.412;2023-06-04T12:30:35;22.80;59.00
51486;DHT22;37565;51.352;6.412;2023-06-04T12:33:05;22.90;60.60
51486;DHT22;37565;51.352;6.412;2023-06-04T12:35:33;22.90;59.90
51486;DHT22;37565;51.352;6.412;2023-06-04T12:38:03;22.90;61.60
51486;DHT22;37565;51.352;6.412;2023-06-04T12:40:31;22.90;60.70
51486;DHT22;37565;51.352;6.412;2023-06-04T12:42:59;22.90;60.90
51486;DHT22;37565;51.352;6.412;2023-06-04T12:45:27;22.90;59.90
51486;DHT22;37565;51.352;6.412;2023-06-04T12:47:55;22.90;60.60
51486;DHT22;37565;51.352;6.412;2023-06-04T12:50:25;22.90;59.90
51486;DHT22;37565;51.352;6.412;2023-06-04T12:52:53;22.90;60.10
51486;DHT22;37565;51.352;6.412;2023-06-04T12:55:21;22.90;59.40
51486;DHT22;37565;51.352;6.412;2023-06-04T12:57:51;22.90;59.40
51486;DHT22;37565;51.352;6.412;2023-06-04T13:00:19;22.90;59.00
51486;DHT22;37565;51.352;6.412;2023-06-04T13:02:47;22.90;58.70
51486;DHT22;37565;51.352;6.412;2023-06-04T13:05:15;22.90;59.00
51486;DHT22;37565;51.352;6.412;2023-06-04T13:07:45;22.90;60.00
51486;DHT22;37565;51.352;6.412;2023-06-04T13:10:13;22.90;60.00
51486;DHT22;37565;51.352;6.412;2023-06-04T13:12:41;22.90;59.80
51486;DHT22;37565;51.352;6.412;2023-06-04T13:15:09;22.90;60.20
51486;DHT22;37565;51.352;6.412;2023-06-04T13:17:37;22.90;60.30
51486;DHT22;37565;51.352;6.412;2023-06-04T13:20:07;22.90;61.10
51486;DHT22;37565;51.352;6.412;2023-06-04T13:22:36;22.90;61.80
51486;DHT22;37565;51.352;6.412;2023-06-04T13:25:06;23.00;61.90
51486;DHT22;37565;51.352;6.412;2023-06-04T13:27:34;22.90;61.50
51486;DHT22;37565;51.352;6.412;2023-06-04T13:30:02;22.90;61.20
51486;DHT22;37565;51.352;6.412;2023-06-04T13:32:30;22.90;63.00
51486;DHT22;37565;51.352;6.412;2023-06-04T13:34:58;22.90;63.50
51486;DHT22;37565;51.352;6.412;2023-06-04T13:37:26;22.90;63.50
51486;DHT22;37565;51.352;6.412;2023-06-04T13:39:54;22.90;63.00
51486;DHT22;37565;51.352;6.412;2023-06-04T13:42:23;22.90;63.50
51486;DHT22;37565;51.352;6.412;2023-06-04T13:44:51;22.90;63.00
51486;DHT22;37565;51.352;6.412;2023-06-04T13:47:19;22.90;62.80
51486;DHT22;37565;51.352;6.412;2023-06-04T13:49:48;22.90;62.80
51486;DHT22;37565;51.352;6.412;2023-06-04T13:52:16;22.90;63.30
51486;DHT22;37565;51.352;6.412;2023-06-04T13:54:44;22.90;64.90
51486;DHT22;37565;51.352;6.412;2023-06-04T13:57:12;22.90;63.20
51486;DHT22;37565;51.352;6.412;2023-06-04T13:59:41;22.90;62.90
51486;DHT22;37565;51.352;6.412;2023-06-04T14:02:09;22.90;63.30
51486;DHT22;37565;51.352;6.412;2023-06-04T14:04:37;22.90;62.90
51486;DHT22;37565;51.352;6.412;2023-06-04T14:07:05;22.90;62.90
51486;DHT22;37565;51.352;6.412;2023-06-04T14:09:34;22.90;63.70
51486;DHT22;37565;51.352;6.412;2023-06-04T14:12:02;22.90;63.90
51486;DHT22;37565;51.352;6.412;2023-06-04T14:14:30;22.90;64.40
51486;DHT22;37565;51.352;6.412;2023-06-04T14:17:05;22.90;63.20
51486;DHT22;37565;51.352;6.412;2023-06-04T14:19:33;22.90;63.80
51486;DHT22;37565;51.352;6.412;2023-06-04T14:22:01;22.90;63.80
51486;DHT22;37565;51.352;6.412;2023-06-04T14:24:29;22.90;63.90
51486;DHT22;37565;51.352;6.412;2023-06-04T14:26:58;22.90;63.60
51486;DHT22;37565;51.352;6.412;2023-06-04T14:29:26;22.90;64.80
51486;DHT22;37565;51.352;6.412;2023-06-04T14:31:54;22.90;64.60
51486;DHT22;37565;51.352;6.412;2023-06-04T14:34:23;22.90;64.70
51486;DHT22;37565;51.352;6.412;2023-06-04T14:36:51;22.90;64.00
51486;DHT22;37565;51.352;6.412;2023-06-04T14:39:19;22.90;64.70
51486;DHT22;37565;51.352;6.412;2023-06-04T14:41:48;22.90;64.40
51486;DHT22;37565;51.352;6.412;2023-06-04T14:44:17;22.90;65.30
51486;DHT22;37565;51.352;6.412;2023-06-04T14:46:45;22.90;64.90
51486;DHT22;37565;51.352;6.412;2023-06-04T14:49:13;22.90;63.70
51486;DHT22;37565;51.352;6.412;2023-06-04T14:51:42;22.90;64.00
51486;DHT22;37565;51.352;6.412;2023-06-04T14:54:10;23.00;64.90
51486;DHT22;37565;51.352;6.412;2023-06-04T14:56:38;22.90;63.70
51486;DHT22;37565;51.352;6.412;2023-06-04T14:59:06;22.90;64.00
51486;DHT22;37565;51.352;6.412;2023-06-04T15:01:38;22.90;65.00
51486;DHT22;37565;51.352;6.412;2023-06-04T15:04:07;22.90;64.40
51486;DHT22;37565;51.352;6.412;2023-06-04T15:06:35;22.90;65.70
51486;DHT22;37565;51.352;6.412;2023-06-04T15:09:05;23.00;65.80
51486;DHT22;37565;51.352;6.412;2023-06-04T15:11:33;22.90;65.40
51486;DHT22;37565;51.352;6.412;2023-06-04T15:14:01;23.00;64.30
51486;DHT22;37565;51.352;6.412;2023-06-04T15:16:29;23.00;64.50
51486;DHT22;37565;51.352;6.412;2023-06-04T15:18:57;23.00;64.20
51486;DHT22;37565;51.352;6.412;2023-06-04T15:21:25;23.00;64.90
51486;DHT22;37565;51.352;6.412;2023-06-04T15:23:53;23.00;64.70
51486;DHT22;37565;51.352;6.412;2023-06-04T15:26:23;23.00;65.00
51486;DHT22;37565;51.352;6.412;2023-06-04T15:28:53;23.00;65.20
51486;DHT22;37565;51.352;6.412;2023-06-04T15:31:23;23.00;64.30
51486;DHT22;37565;51.352;6.412;2023-06-04T15:33:51;23.00;64.80
51486;DHT22;37565;51.352;6.412;2023-06-04T15:36:19;23.00;64.60
51486;DHT22;37565;51.352;6.412;2023-06-04T15:38:48;23.00;65.20
51486;DHT22;37565;51.352;6.412;2023-06-04T15:41:17;23.00;65.00
51486;DHT22;37565;51.352;6.412;2023-06-04T15:43:47;23.00;65.50
51486;DHT22;37565;51.352;6.412;2023-06-04T15:46:15;23.00;65.10
51486;DHT22;37565;51.352;6.412;2023-06-04T15:48:43;23.00;65.60
51486;DHT22;37565;51.352;6.412;2023-06-04T15:51:11;23.00;65.90
51486;DHT22;37565;51.352;6.412;2023-06-04T15:53:39;23.00;65.70
51486;DHT22;37565;51.352;6.412;2023-06-04T15:56:07;23.00;64.80
51486;DHT22;37565;51.352;6.412;2023-06-04T15:58:35;23.00;65.20
51486;DHT22;37565;51.352;6.412;2023-06-04T16:01:04;23.00;65.40
51486;DHT22;37565;51.352;6.412;2023-06-04T16:03:33;23.00;66.00
51486;DHT22;37565;51.352;6.412;2023-06-04T16:06:01;23.00;64.90
51486;DHT22;37565;51.352;6.412;2023-06-04T16:08:29;23.00;66.00
51486;DHT22;37565;51.352;6.412;2023-06-04T16:10:57;23.00;65.20
51486;DHT22;37565;51.352;6.412;2023-06-04T16:13:26;23.00;65.30
51486;DHT22;37565;51.352;6.412;2023-06-04T16:15:54;23.00;65.50
51486;DHT22;37565;51.352;6.412;2023-06-04T16:18:24;23.00;66.00
51486;DHT22;37565;51.352;6.412;2023-06-04T16:20:53;23.00;65.70
51486;DHT22;37565;51.352;6.412;2023-06-04T16:23:21;23.00;65.30
51486;DHT22;37565;51.352;6.412;2023-06-04T16:25:49;23.00;64.60
51486;DHT22;37565;51.352;6.412;2023-06-04T16:28:17;23.00;66.10
51486;DHT22;37565;51.352;6.412;2023-06-04T16:30:45;23.00;66.10
51486;DHT22;37565;51.352;6.412;2023-06-04T16:33:13;23.00;65.10
51486;DHT22;37565;51.352;6.412;2023-06-04T16:35:42;23.00;65.70
51486;DHT22;37565;51.352;6.412;2023-06-04T16:38:10;23.00;65.50
51486;DHT22;37565;51.352;6.412;2023-06-04T16:40:39;23.00;65.80
51486;DHT22;37565;51.352;6.412;2023-06-04T16:43:07;23.00;66.10
51486;DHT22;37565;51.352;6.412;2023-06-04T16:45:35;23.00;66.10
51486;DHT22;37565;51.352;6.412;2023-06-04T16:48:03;23.00;66.10
51486;DHT22;37565;51.352;6.412;2023-06-04T16:50:31;23.00;66.40
51486;DHT22;37565;51.352;6.412;2023-06-04T16:53:00;23.00;66.20
51486;DHT22;37565;51.352;6.412;2023-06-04T16:55:29;23.00;66.00
51486;DHT22;37565;51.352;6.412;2023-06-04T16:57:58;23.00;66.30
51486;DHT22;37565;51.352;6.412;2023-06-04T17:00:26;23.00;66.20
51486;DHT22;37565;51.352;6.412;2023-06-04T17:02:55;23.00;65.70
51486;DHT22;37565;51.352;6.412;2023-06-04T17:05:24;23.00;67.10
51486;DHT22;37565;51.352;6.412;2023-06-04T17:07:52;23.00;67.10
51486;DHT22;37565;51.352;6.412;2023-06-04T17:10:22;23.00;66.60
51486;DHT22;37565;51.352;6.412;2023-06-04T17:12:52;23.00;66.50
51486;DHT22;37565;51.352;6.412;2023-06-04T17:15:20;23.00;66.30
51486;DHT22;37565;51.352;6.412;2023-06-04T17:17:48;23.00;67.30
51486;DHT22;37565;51.352;6.412;2023-06-04T17:20:17;23.00;66.80
51486;DHT22;37565;51.352;6.412;2023-06-04T17:22:45;23.00;66.00
51486;DHT22;37565;51.352;6.412;2023-06-04T17:25:13;23.00;67.70
51486;DHT22;37565;51.352;6.412;2023-06-04T17:27:42;23.00;66.80
51486;DHT22;37565;51.352;6.412;2023-06-04T17:30:11;23.00;66.50
51486;DHT22;37565;51.352;6.412;2023-06-04T17:32:39;23.00;66.40
51486;DHT22;37565;51.352;6.412;2023-06-04T17:35:07;23.00;65.80
51486;DHT22;37565;51.352;6.412;2023-06-04T17:37:36;23.00;67.10
51486;DHT22;37565;51.352;6.412;2023-06-04T17:40:06;23.00;67.40
51486;DHT22;37565;51.352;6.412;2023-06-04T17:42:34;23.00;67.20
51486;DHT22;37565;51.352;6.412;2023-06-04T17:45:04;23.00;66.30
51486;DHT22;37565;51.352;6.412;2023-06-04T17:47:34;23.00;66.90
51486;DHT22;37565;51.352;6.412;2023-06-04T17:50:02;23.00;66.80
51486;DHT22;37565;51.352;6.412;2023-06-04T17:52:33;23.00;67.00
51486;DHT22;37565;51.352;6.412;2023-06-04T17:55:02;23.00;66.60
51486;DHT22;37565;51.352;6.412;2023-06-04T17:57:30;23.00;67.60
51486;DHT22;37565;51.352;6.412;2023-06-04T17:59:58;23.00;68.00
51486;DHT22;37565;51.352;6.412;2023-06-04T18:02:27;23.00;67.20
51486;DHT22;37565;51.352;6.412;2023-06-04T18:04:55;23.00;67.20
51486;DHT22;37565;51.352;6.412;2023-06-04T18:07:23;23.00;66.60
51486;DHT22;37565;51.352;6.412;2023-06-04T18:09:51;23.00;67.80
51486;DHT22;37565;51.352;6.412;2023-06-04T18:12:19;23.00;67.60
51486;DHT22;37565;51.352;6.412;2023-06-04T18:14:47;23.00;68.20
51486;DHT22;37565;51.352;6.412;2023-06-04T18:17:15;23.00;68.40
51486;DHT22;37565;51.352;6.412;2023-06-04T18:19:45;23.00;68.10
51486;DHT22;37565;51.352;6.412;2023-06-04T18:22:13;23.00;67.80
51486;DHT22;37565;51.352;6.412;2023-06-04T18:24:41;23.00;68.00
51486;DHT22;37565;51.352;6.412;2023-06-04T18:27:09;23.00;68.10
51486;DHT22;37565;51.352;6.412;2023-06-04T18:29:37;23.00;68.00
51486;DHT22;37565;51.352;6.412;2023-06-04T18:32:05;23.00;68.30
51486;DHT22;37565;51.352;6.412;2023-06-04T18:34:33;23.00;68.50
51486;DHT22;37565;51.352;6.412;2023-06-04T18:37:03;23.00;68.60
51486;DHT22;37565;51.352;6.412;2023-06-04T18:39:31;23.00;68.60
51486;DHT22;37565;51.352;6.412;2023-06-04T18:42:00;23.00;69.00
51486;DHT22;37565;51.352;6.412;2023-06-04T18:44:32;23.00;69.80
51486;DHT22;37565;51.352;6.412;2023-06-04T18:47:00;23.00;68.80
51486;DHT22;37565;51.352;6.412;2023-06-04T18:49:28;23.00;69.00
51486;DHT22;37565;51.352;6.412;2023-06-04T18:51:56;22.90;69.30
51486;DHT22;37565;51.352;6.412;2023-06-04T18:54:27;23.00;69.20
51486;DHT22;37565;51.352;6.412;2023-06-04T18:56:55;23.00;69.30
51486;DHT22;37565;51.352;6.412;2023-06-04T18:59:23;22.90;69.20
51486;DHT22;37565;51.352;6.412;2023-06-04T19:01:51;22.90;69.20
51486;DHT22;37565;51.352;6.412;2023-06-04T19:04:18;22.90;69.70
51486;DHT22;37565;51.352;6.412;2023-06-04T19:06:47;22.90;69.60
51486;DHT22;37565;51.352;6.412;2023-06-04T19:09:14;22.90;69.10
51486;DHT22;37565;51.352;6.412;2023-06-04T19:11:44;22.90;69.70
51486;DHT22;37565;51.352;6.412;2023-06-04T19:14:12;22.90;69.70
51486;DHT22;37565;51.352;6.412;2023-06-04T19:16:40;22.90;69.90
51486;DHT22;37565;51.352;6.412;2023-06-04T19:19:09;22.90;69.80
51486;DHT22;37565;51.352;6.412;2023-06-04T19:21:37;22.90;70.40
51486;DHT22;37565;51.352;6.412;2023-06-04T19:24:05;22.90;70.50
51486;DHT22;37565;51.352;6.412;2023-06-04T19:26:35;22.90;70.50
51486;DHT22;37565;51.352;6.412;2023-06-04T19:29:04;22.90;70.70
51486;DHT22;37565;51.352;6.412;2023-06-04T19:31:33;22.90;71.10
51486;DHT22;37565;51.352;6.412;2023-06-04T19:34:01;22.90;70.80
51486;DHT22;37565;51.352;6.412;2023-06-04T19:36:29;22.90;71.50
51486;DHT22;37565;51.352;6.412;2023-06-04T19:38:57;22.90;71.30
51486;DHT22;37565;51.352;6.412;2023-06-04T19:41:26;22.90;71.40